This is the latest recevied weather packets stored in our database for station/object NG6B-2. If no packets are shown the sender has not sent any weather packets the latest 10 day(s).
| Time | Temp. | Humidity | Pressure | Rain* | Wind** | Luminosity | Snow |
|---|---|---|---|---|---|---|---|
| 1778233032 | 16.11° C | 36% | 1007.4 hPa | 0 mm | - | - | - |
| 1778231231 | 16.67° C | 34% | 1007.6 hPa | 0 mm | - | - | - |
| 1778229430 | 17.22° C | 33% | 1007.8 hPa | 0 mm | - | - | - |
| 1778227629 | 17.78° C | 32% | 1008 hPa | 0 mm | - | - | - |
| 1778225828 | 17.78° C | 31% | 1008.4 hPa | 0 mm | - | - | - |
| 1778224027 | 18.33° C | 29% | 1008.4 hPa | 0 mm | - | - | - |
| 1778222226 | 18.89° C | 28% | 1008.4 hPa | 0 mm | - | - | - |
| 1778220425 | 18.33° C | 29% | 1008.3 hPa | 0 mm | - | - | - |
| 1778218624 | 18.89° C | 28% | 1008.3 hPa | 0 mm | - | - | - |
| 1778216823 | 19.44° C | 27% | 1008.3 hPa | 0 mm | - | - | - |
| 1778215022 | 21.11° C | 23% | 1008.3 hPa | 0 mm | - | - | - |
| 1778213222 | 21.67° C | 22% | 1008.1 hPa | 0 mm | - | - | - |
| 1778211420 | 22.22° C | 21% | 1007.3 hPa | 0 mm | - | - | - |
| 1778209619 | 22.78° C | 20% | 1006.7 hPa | 0 mm | - | - | - |
| 1778207818 | 23.89° C | 17% | 1005.8 hPa | 0 mm | - | - | - |
| 1778206017 | 25.56° C | 13% | 1005 hPa | 0 mm | - | - | - |
| 1778204216 | 26.11° C | 12% | 1004.5 hPa | 0 mm | - | - | - |
| 1778202415 | 26.11° C | 12% | 1004.7 hPa | 0 mm | - | - | - |
| 1778200614 | 27.78° C | 10% | 1004.6 hPa | 0 mm | - | - | - |
| 1778198813 | 28.33° C | 8% | 1004 hPa | 0 mm | - | - | - |
| 1778197012 | 27.78° C | 9% | 1004 hPa | 0 mm | - | - | - |
| 1778195211 | 28.33° C | 8% | 1004 hPa | 0 mm | - | - | - |
| 1778193410 | 28.33° C | 8% | 1004.1 hPa | 0 mm | - | - | - |
| 1778191609 | 28.33° C | 8% | 1004.5 hPa | 0 mm | - | - | - |
| 1778189808 | 28.33° C | 8% | 1004.8 hPa | 0 mm | - | - | - |
* Rain latest hour (hover to see other rain measurements)
** Current wind speed in m/s (hover to see current wind gust speed)